Time;durP1;ratioP1;P1;durP2;ratioP2;P2;SDS_P1;SDS_P2;PMS_P1;PMS_P2;Temp;Humidity;BMP_temperature;BMP_pressure;BME280_temperature;BME280_humidity;BME280_pressure;Samples;Min_cycle;Max_cycle;Signal;HPM_P1;HPM_P2
2021/07/01 00:01:57;;;;;;;8.05;7.25;;;;;;;15.80;69.81;99217.28;254417;1097;115748;-75
2021/07/01 00:07:01;;;;;;;9.33;8.40;;;;;;;15.73;70.56;99222.97;254672;1104;115910;-73
2021/07/01 00:12:05;;;;;;;10.18;9.28;;;;;;;15.75;70.32;99210.05;254127;1099;116457;-72
2021/07/01 00:17:08;;;;;;;9.13;7.57;;;;;;;15.77;70.68;99202.52;254310;1104;117321;-73
2021/07/01 00:22:12;;;;;;;10.03;8.70;;;;;;;15.75;70.63;99201.19;254308;1104;115982;-74
2021/07/01 00:27:15;;;;;;;8.98;8.10;;;;;;;15.75;70.65;99191.24;254177;1103;117699;-73
2021/07/01 00:32:18;;;;;;;9.15;7.45;;;;;;;15.76;70.79;99182.09;254437;1104;119636;-74
2021/07/01 00:37:22;;;;;;;8.60;7.60;;;;;;;15.76;70.92;99168.66;256960;1104;114308;-73
2021/07/01 00:42:26;;;;;;;8.97;7.47;;;;;;;15.79;71.26;99168.10;255899;1104;116645;-72
2021/07/01 00:47:30;;;;;;;7.40;6.80;;;;;;;15.81;70.90;99165.13;254560;1104;117030;-72
2021/07/01 00:52:34;;;;;;;7.63;6.50;;;;;;;15.76;71.14;99149.86;254583;1104;116244;-73
2021/07/01 00:57:38;;;;;;;7.30;6.45;;;;;;;15.68;70.54;99139.70;254386;1097;116955;-72
2021/07/01 01:02:42;;;;;;;7.25;6.65;;;;;;;15.48;70.55;99134.48;256180;1104;116871;-73
2021/07/01 01:07:47;;;;;;;7.50;6.90;;;;;;;15.47;70.68;99131.00;254634;1104;115934;-72
2021/07/01 01:12:50;;;;;;;8.43;7.73;;;;;;;15.49;71.60;99123.47;255015;1104;116631;-73
2021/07/01 01:17:53;;;;;;;7.63;7.03;;;;;;;15.41;70.91;99121.38;254599;1104;115332;-73
2021/07/01 01:22:57;;;;;;;7.73;7.00;;;;;;;15.26;70.55;99120.70;255135;1103;116155;-73
2021/07/01 01:27:59;;;;;;;6.50;6.00;;;;;;;15.02;70.77;99124.07;254236;1104;116765;-72
2021/07/01 01:33:05;;;;;;;10.30;8.60;;;;;;;14.91;71.00;99130.60;255278;1103;115911;-71
2021/07/01 01:38:14;;;;;;;8.87;8.07;;;;;;;14.94;71.58;99124.68;254453;1103;117225;-71
2021/07/01 01:43:19;;;;;;;11.23;8.45;;;;;;;15.05;72.22;99110.09;255137;1104;114883;-72
2021/07/01 01:48:22;;;;;;;10.08;9.15;;;;;;;15.18;71.82;99124.78;255405;1104;115966;-74
2021/07/01 01:53:25;;;;;;;9.23;8.35;;;;;;;15.20;72.21;99116.45;254294;1104;116057;-75
2021/07/01 01:58:28;;;;;;;11.73;9.13;;;;;;;15.21;72.08;99118.05;254553;1103;116534;-74
2021/07/01 02:03:31;;;;;;;10.80;8.37;;;;;;;14.93;70.98;99122.27;254469;1103;117265;-70
2021/07/01 02:08:35;;;;;;;9.25;7.30;;;;;;;14.68;71.13;99124.00;254555;1103;116391;-71
2021/07/01 02:13:38;;;;;;;14.15;8.88;;;;;;;14.68;71.86;99137.41;254462;1104;116633;-71
2021/07/01 02:18:41;;;;;;;17.20;9.00;;;;;;;14.73;72.47;99150.00;254600;1097;116522;-71
2021/07/01 02:23:45;;;;;;;9.50;8.60;;;;;;;14.74;72.50;99157.77;254433;1104;115218;-71
2021/07/01 02:28:49;;;;;;;10.58;9.48;;;;;;;14.82;72.51;99159.09;254322;1098;114999;-72
2021/07/01 02:33:52;;;;;;;13.65;9.10;;;;;;;14.91;72.63;99164.69;254979;1104;115205;-73
2021/07/01 02:38:55;;;;;;;9.67;8.50;;;;;;;14.89;72.19;99164.16;254454;1104;118801;-73
2021/07/01 02:43:59;;;;;;;13.13;7.88;;;;;;;14.74;71.92;99165.83;254514;1104;115338;-72
2021/07/01 02:49:02;;;;;;;9.95;8.90;;;;;;;14.64;71.92;99175.81;255018;1104;115767;-70
2021/07/01 02:54:06;;;;;;;9.63;8.05;;;;;;;14.68;72.43;99179.53;254404;1104;115344;-71
2021/07/01 02:59:14;;;;;;;9.18;8.35;;;;;;;14.69;72.74;99178.45;254729;1097;115955;-70
2021/07/01 03:04:17;;;;;;;11.45;8.35;;;;;;;14.75;72.37;99171.99;256003;1104;117067;-71
2021/07/01 03:09:20;;;;;;;9.65;7.63;;;;;;;14.75;72.68;99171.99;254381;1104;115217;-73
2021/07/01 03:14:23;;;;;;;8.10;7.20;;;;;;;14.73;72.75;99171.47;255338;1104;115512;-71
2021/07/01 03:19:27;;;;;;;13.63;8.10;;;;;;;14.71;72.68;99174.42;255578;1104;115864;-76
2021/07/01 03:24:30;;;;;;;11.08;8.30;;;;;;;14.74;72.50;99173.07;254887;1104;116622;-75
2021/07/01 03:29:32;;;;;;;10.45;8.95;;;;;;;14.79;73.20;99175.73;254659;1103;115906;-76
2021/07/01 03:34:35;;;;;;;9.73;8.80;;;;;;;14.80;73.05;99183.51;254139;1104;117726;-72
2021/07/01 03:39:39;;;;;;;10.38;8.43;;;;;;;14.84;73.29;99183.77;254482;1104;116684;-73
2021/07/01 03:44:42;;;;;;;9.43;7.53;;;;;;;14.99;73.35;99188.23;254459;1104;116716;-74
2021/07/01 03:49:45;;;;;;;10.73;8.80;;;;;;;15.20;73.41;99191.63;254400;1097;117064;-73
2021/07/01 03:54:48;;;;;;;16.80;10.10;;;;;;;15.37;73.75;99192.03;254481;1102;116732;-73
2021/07/01 03:59:52;;;;;;;13.20;9.15;;;;;;;15.70;73.49;99196.66;254259;1103;117401;-74
2021/07/01 04:04:55;;;;;;;15.43;10.43;;;;;;;15.98;74.14;99194.27;254975;1102;115684;-71
2021/07/01 04:10:01;;;;;;;9.73;8.83;;;;;;;16.27;74.42;99197.73;254982;1104;115485;-71
2021/07/01 04:15:06;;;;;;;11.50;10.43;;;;;;;16.56;74.40;99186.13;255117;1104;115600;-69
2021/07/01 04:20:09;;;;;;;15.40;8.73;;;;;;;16.96;73.93;99188.34;255020;1104;115464;-71
2021/07/01 04:25:12;;;;;;;11.93;8.30;;;;;;;17.32;73.68;99188.66;254716;1104;115406;-73
2021/07/01 04:30:16;;;;;;;11.93;7.97;;;;;;;17.74;73.88;99185.03;254848;1103;115674;-74
2021/07/01 04:35:20;;;;;;;5.68;5.20;;;;;;;18.87;72.65;99194.58;254432;1103;115383;-73
2021/07/01 04:40:23;;;;;;;6.48;5.88;;;;;;;21.95;68.60;99194.63;255985;1104;115814;-73
2021/07/01 04:45:27;;;;;;;7.33;4.53;;;;;;;21.42;68.21;99185.74;254825;1103;116054;-76
2021/07/01 04:50:30;;;;;;;7.38;5.15;;;;;;;21.28;68.05;99179.70;257060;1104;115284;-76
2021/07/01 04:55:33;;;;;;;5.33;4.68;;;;;;;21.13;67.77;99189.05;256259;1104;115260;-76
2021/07/01 05:00:36;;;;;;;5.13;4.73;;;;;;;20.78;67.11;99203.67;257207;1104;116978;-76
2021/07/01 05:05:40;;;;;;;5.33;4.90;;;;;;;20.43;67.05;99210.88;256266;1104;115399;-74
2021/07/01 05:10:43;;;;;;;5.18;4.78;;;;;;;20.29;67.76;99215.55;254577;1104;115904;-75
2021/07/01 05:15:47;;;;;;;7.08;5.38;;;;;;;20.17;67.85;99216.14;254449;1104;116162;-74
2021/07/01 05:20:50;;;;;;;6.30;5.70;;;;;;;19.97;67.75;99208.53;254408;1104;115541;-74
2021/07/01 05:25:53;;;;;;;9.73;5.30;;;;;;;19.94;67.89;99214.55;255514;1104;115612;-73
2021/07/01 05:30:56;;;;;;;5.73;4.78;;;;;;;19.94;68.12;99206.44;255067;1104;116243;-75
2021/07/01 05:35:59;;;;;;;9.10;5.40;;;;;;;20.01;68.05;99212.22;254551;1104;116337;-76
2021/07/01 05:41:03;;;;;;;4.90;4.60;;;;;;;20.08;68.06;99209.88;254384;1104;115643;-74
2021/07/01 05:46:07;;;;;;;4.33;4.07;;;;;;;20.15;67.53;99215.66;254421;1104;115935;-75
2021/07/01 05:51:15;;;;;;;5.78;5.28;;;;;;;20.32;67.42;99217.63;254513;1097;115321;-77
2021/07/01 05:56:18;;;;;;;7.65;5.00;;;;;;;20.54;67.30;99224.92;254584;1097;115546;-77
2021/07/01 06:01:21;;;;;;;4.18;3.78;;;;;;;20.58;66.74;99234.81;254741;1103;114836;-73
2021/07/01 06:06:25;;;;;;;5.98;5.20;;;;;;;20.58;66.82;99236.72;255210;1104;114843;-77
2021/07/01 06:11:30;;;;;;;6.10;5.00;;;;;;;20.76;66.56;99236.49;254697;1104;114961;-73
2021/07/01 06:16:39;;;;;;;4.18;3.80;;;;;;;22.34;65.52;99226.95;254327;1104;114622;-73
2021/07/01 06:21:44;;;;;;;4.40;4.05;;;;;;;25.99;61.35;99223.64;254204;1104;115266;-77
2021/07/01 06:26:49;;;;;;;3.90;3.60;;;;;;;27.22;59.01;99232.53;254260;1104;115595;-77
2021/07/01 06:31:53;;;;;;;3.63;3.33;;;;;;;29.91;55.65;99225.33;254165;1104;115339;-79
2021/07/01 06:37:02;;;;;;;4.78;3.15;;;;;;;32.26;51.35;99235.94;254322;1104;115217;-80
2021/07/01 06:42:06;;;;;;;2.75;2.50;;;;;;;31.91;48.47;99244.09;256800;1103;115307;-78
2021/07/01 06:47:09;;;;;;;2.85;2.65;;;;;;;31.04;47.56;99250.33;254489;1104;115382;-80
2021/07/01 06:52:13;;;;;;;2.20;2.10;;;;;;;30.86;46.75;99243.92;254230;1103;115268;-76
2021/07/01 06:57:18;;;;;;;2.25;2.15;;;;;;;30.85;45.53;99244.30;254464;1104;114429;-78
2021/07/01 07:02:22;;;;;;;2.70;2.50;;;;;;;30.32;46.13;99239.89;254313;1103;117935;-74
2021/07/01 07:07:25;;;;;;;3.98;2.33;;;;;;;29.82;46.07;99238.56;254439;1104;115826;-75
2021/07/01 07:12:29;;;;;;;5.00;2.20;;;;;;;29.37;45.47;99245.03;254807;1103;115764;-78
2021/07/01 07:17:37;;;;;;;4.90;2.53;;;;;;;29.08;45.77;99250.13;255557;1103;115186;-78
2021/07/01 07:22:42;;;;;;;2.70;2.47;;;;;;;29.00;45.63;99239.44;254343;1104;115927;-79
2021/07/01 07:27:51;;;;;;;3.57;2.70;;;;;;;29.72;45.35;99251.00;254780;1103;116167;-79
2021/07/01 07:32:55;;;;;;;2.43;2.33;;;;;;;29.88;45.10;99266.50;257294;1104;115555;-80
2021/07/01 07:37:59;;;;;;;;;;;;;;;30.06;45.13;99262.02;254425;1104;116093;-79
2021/07/01 07:43:04;;;;;;;3.08;2.58;;;;;;;30.27;44.91;99251.23;254980;1104;103094;-79
2021/07/01 07:48:08;;;;;;;2.68;2.58;;;;;;;30.61;44.55;99251.96;254722;1097;115579;-78
2021/07/01 07:53:18;;;;;;;3.60;2.88;;;;;;;30.60;42.98;99233.88;254492;1096;115372;-79
2021/07/01 07:58:24;;;;;;;3.55;3.30;;;;;;;30.41;43.34;99243.13;255215;1104;115405;-78
2021/07/01 08:03:37;;;;;;;;;;;;;;;30.16;43.96;99231.11;254448;1104;116701;-77
2021/07/01 08:08:43;;;;;;;2.90;2.70;;;;;;;30.06;43.68;99231.78;255168;1104;104037;-79
2021/07/01 08:13:58;;;;;;;2.20;2.10;;;;;;;29.98;43.31;99224.59;254696;1103;116897;-73
2021/07/01 08:19:03;;;;;;;2.60;2.50;;;;;;;29.88;42.60;99234.33;254223;1103;115969;-76
2021/07/01 08:24:09;;;;;;;;;;;;;;;29.88;43.30;99242.57;255563;1102;116936;-77
2021/07/01 08:29:17;;;;;;;6.03;2.75;;;;;;;29.77;42.74;99252.63;256409;1104;103514;-79
2021/07/01 08:34:23;;;;;;;3.60;2.55;;;;;;;29.04;42.05;99256.75;254809;1104;116398;-80
2021/07/01 08:39:29;;;;;;;2.03;1.93;;;;;;;28.81;43.24;99249.33;254400;1104;116015;-80
2021/07/01 08:44:44;;;;;;;1.93;1.83;;;;;;;28.71;43.43;99251.89;254869;1103;115651;-73
2021/07/01 08:49:56;;;;;;;2.30;2.20;;;;;;;28.79;43.56;99237.90;255135;1104;115933;-76
2021/07/01 08:55:03;;;;;;;2.83;2.63;;;;;;;28.61;43.59;99244.27;256546;1103;115130;-78
2021/07/01 09:00:14;;;;;;;3.38;2.53;;;;;;;28.54;44.03;99249.63;257227;1103;118123;-80
2021/07/01 09:05:18;;;;;;;3.75;1.75;;;;;;;27.79;43.40;99256.47;257315;1104;116985;-77
2021/07/01 09:10:22;;;;;;;3.05;2.23;;;;;;;27.39;44.17;99264.98;257139;1103;116292;-78
2021/07/01 09:15:28;;;;;;;2.24;1.74;;;;;;;27.26;44.90;99256.09;256359;1098;116397;-77
2021/07/01 09:20:36;;;;;;;7.60;5.93;;;;;;;27.70;45.40;99242.98;254374;1104;116086;-77
2021/07/01 09:25:42;;;;;;;2.20;2.10;;;;;;;27.44;45.21;99245.54;255362;1104;116239;-76
2021/07/01 09:30:45;;;;;;;2.25;2.15;;;;;;;27.66;45.54;99246.80;254396;1103;118146;-75
2021/07/01 09:35:48;;;;;;;5.67;3.33;;;;;;;27.75;45.05;99256.39;254355;1104;116635;-74
2021/07/01 09:40:51;;;;;;;1.60;1.60;;;;;;;28.01;44.02;99252.98;254395;1104;116820;-76
2021/07/01 09:46:00;;;;;;;2.23;2.08;;;;;;;28.47;45.16;99244.81;254154;1104;116013;-75
2021/07/01 09:51:04;;;;;;;6.70;2.10;;;;;;;28.43;43.62;99242.01;254955;1104;116613;-76
2021/07/01 09:56:12;;;;;;;18.30;4.80;;;;;;;28.08;43.47;99246.85;254525;1104;115812;-76
2021/07/01 10:01:24;;;;;;;3.70;2.25;;;;;;;27.72;43.59;99235.20;254217;1096;115681;-76
2021/07/01 10:06:29;;;;;;;2.73;2.58;;;;;;;27.59;43.92;99227.48;254369;1103;116823;-75
2021/07/01 10:11:38;;;;;;;2.55;2.10;;;;;;;27.50;43.80;99227.69;254062;1104;116563;-72
2021/07/01 10:16:42;;;;;;;2.28;2.18;;;;;;;27.43;43.75;99213.84;254346;1097;116376;-74
2021/07/01 10:21:46;;;;;;;2.30;2.20;;;;;;;27.32;44.08;99210.88;254280;1104;116346;-75
2021/07/01 10:26:52;;;;;;;2.00;2.00;;;;;;;27.31;44.28;99208.49;254512;1104;116601;-72
2021/07/01 10:31:59;;;;;;;4.78;2.70;;;;;;;27.37;44.25;99210.59;254134;1098;116886;-76
2021/07/01 10:37:21;;;;;;;1.95;1.85;;;;;;;27.41;44.40;99216.94;254114;1104;116668;-73
2021/07/01 10:42:25;;;;;;;1.63;1.53;;;;;;;27.32;44.42;99221.03;254172;1104;115522;-75
2021/07/01 10:47:30;;;;;;;9.00;4.93;;;;;;;27.10;43.97;99228.78;254271;1104;116653;-73
2021/07/01 10:52:34;;;;;;;2.73;2.53;;;;;;;27.22;44.25;99238.00;254440;1096;115048;-73
2021/07/01 10:57:56;;;;;;;2.57;2.43;;;;;;;27.16;44.16;99242.98;255547;1104;114648;-74
2021/07/01 11:03:00;;;;;;;2.48;2.28;;;;;;;27.02;44.38;99243.44;254170;1104;117971;-73
2021/07/01 11:08:09;;;;;;;2.28;2.18;;;;;;;26.73;44.30;99238.42;254921;1103;115454;-73
2021/07/01 11:13:15;;;;;;;2.20;2.10;;;;;;;26.62;44.72;99254.55;256807;1104;115408;-74
2021/07/01 11:18:18;;;;;;;4.03;2.80;;;;;;;26.51;45.16;99250.78;256622;1104;115209;-74
2021/07/01 11:23:21;;;;;;;3.13;1.80;;;;;;;26.56;45.44;99257.93;257168;1104;115890;-74
2021/07/01 11:28:30;;;;;;;1.80;1.70;;;;;;;26.62;45.07;99264.70;254440;1104;115088;-73
2021/07/01 11:33:33;;;;;;;11.00;4.88;;;;;;;26.46;44.87;99262.77;254914;1103;115170;-73
2021/07/01 11:38:36;;;;;;;4.90;4.13;;;;;;;26.36;44.84;99263.28;255802;1104;114982;-73
2021/07/01 11:43:41;;;;;;;2.33;1.93;;;;;;;26.20;45.62;99264.38;255038;1104;116885;-73
2021/07/01 11:48:49;;;;;;;;;;;;;;;26.00;45.49;99282.55;255124;1104;115123;-73
2021/07/01 11:53:53;;;;;;;2.75;1.78;;;;;;;25.72;46.39;99277.89;256710;1104;102925;-73
2021/07/01 11:58:56;;;;;;;2.05;1.83;;;;;;;25.58;46.23;99271.20;254220;1096;115013;-72
2021/07/01 12:03:59;;;;;;;1.85;1.75;;;;;;;25.43;46.34;99275.44;254338;1096;115096;-73
2021/07/01 12:09:02;;;;;;;1.37;1.37;;;;;;;25.37;46.65;99282.30;254335;1104;115290;-73
2021/07/01 12:14:32;;;;;;;1.77;1.67;;;;;;;25.34;46.52;99286.50;254732;1103;115329;-74
2021/07/01 12:19:46;;;;;;;1.53;1.53;;;;;;;25.30;46.95;99287.52;254925;1103;114897;-73
2021/07/01 12:24:49;;;;;;;1.50;1.50;;;;;;;25.53;46.62;99288.61;254475;1103;115440;-73
2021/07/01 12:29:52;;;;;;;7.75;1.53;;;;;;;25.83;46.36;99289.13;254614;1104;114992;-74
2021/07/01 12:34:55;;;;;;;1.98;1.43;;;;;;;26.10;46.12;99285.59;254290;1097;114950;-73
2021/07/01 12:39:59;;;;;;;1.48;1.38;;;;;;;26.38;46.01;99290.25;254225;1104;114828;-78
2021/07/01 12:45:05;;;;;;;1.43;1.33;;;;;;;26.46;45.21;99290.09;254241;1097;118888;-77
2021/07/01 12:50:11;;;;;;;1.58;1.48;;;;;;;26.62;44.90;99294.77;254147;1104;116473;-77
2021/07/01 12:55:19;;;;;;;1.25;1.25;;;;;;;26.65;45.06;99292.13;254270;1104;116582;-78
2021/07/01 13:00:22;;;;;;;1.60;1.50;;;;;;;26.70;44.31;99299.28;254818;1097;116426;-74
2021/07/01 13:05:31;;;;;;;1.05;1.05;;;;;;;26.76;44.53;99297.88;254633;1097;117059;-75
2021/07/01 13:10:36;;;;;;;1.27;1.27;;;;;;;27.05;44.85;99311.13;254356;1104;117505;-74
2021/07/01 13:15:40;;;;;;;0.90;0.90;;;;;;;27.30;43.74;99299.95;254795;1104;116531;-76
2021/07/01 13:20:43;;;;;;;0.93;0.93;;;;;;;27.36;43.24;99304.01;255848;1104;116188;-74
2021/07/01 13:25:45;;;;;;;0.70;0.70;;;;;;;27.35;42.65;99308.69;254195;1103;116600;-73
2021/07/01 13:30:48;;;;;;;0.90;0.90;;;;;;;27.33;41.96;99294.56;254421;1104;116920;-80
2021/07/01 13:35:50;;;;;;;1.23;1.23;;;;;;;27.44;41.75;99289.34;254316;1104;116151;-77
2021/07/01 13:40:59;;;;;;;4.85;1.75;;;;;;;27.55;42.14;99284.08;254366;1103;116173;-77
2021/07/01 13:46:04;;;;;;;1.20;1.20;;;;;;;27.29;41.94;99287.42;254392;1104;116710;-76
2021/07/01 13:51:07;;;;;;;1.48;1.48;;;;;;;27.21;42.31;99280.22;254324;1104;115981;-75
2021/07/01 13:56:10;;;;;;;1.80;1.70;;;;;;;27.08;42.37;99279.53;254285;1098;116214;-75
2021/07/01 14:01:13;;;;;;;2.20;1.73;;;;;;;26.99;42.56;99282.45;255005;1104;115376;-76
2021/07/01 14:06:15;;;;;;;1.33;1.25;;;;;;;27.05;42.24;99291.17;254065;1098;115702;-75
2021/07/01 14:11:22;;;;;;;1.70;1.60;;;;;;;27.06;41.34;99287.30;254642;1103;115530;-77
2021/07/01 14:16:31;;;;;;;1.25;1.15;;;;;;;26.90;41.53;99290.03;254357;1104;115868;-77
2021/07/01 14:21:37;;;;;;;1.60;0.90;;;;;;;26.63;41.80;99286.22;254351;1097;116173;-76
2021/07/01 14:26:48;;;;;;;3.85;1.35;;;;;;;26.38;42.00;99293.78;254273;1097;115444;-76
2021/07/01 14:31:52;;;;;;;0.90;0.90;;;;;;;26.10;42.23;99298.45;254263;1104;115373;-74
2021/07/01 14:36:55;;;;;;;3.40;1.53;;;;;;;26.03;43.57;99293.58;254475;1104;116462;-75
2021/07/01 14:42:08;;;;;;;1.60;1.60;;;;;;;26.03;43.19;99300.98;254550;1104;117588;-76
2021/07/01 14:47:18;;;;;;;1.83;1.65;;;;;;;25.79;43.61;99299.94;254380;1104;117173;-77
2021/07/01 14:52:23;;;;;;;4.18;2.08;;;;;;;25.64;44.52;99292.49;254657;1096;117040;-73
2021/07/01 14:57:29;;;;;;;1.93;1.83;;;;;;;25.51;44.44;99294.41;254405;1103;116927;-72
2021/07/01 15:02:35;;;;;;;1.53;1.43;;;;;;;25.17;44.49;99298.44;254364;1104;116171;-72
2021/07/01 15:07:50;;;;;;;4.27;1.90;;;;;;;25.01;45.77;99297.55;254382;1104;115845;-74
2021/07/01 15:13:00;;;;;;;1.90;1.80;;;;;;;24.97;45.96;99295.84;255459;1104;116112;-75
2021/07/01 15:18:03;;;;;;;2.15;2.05;;;;;;;25.12;46.46;99298.66;254303;1104;115400;-73
2021/07/01 15:23:08;;;;;;;1.68;1.63;;;;;;;25.16;46.03;99299.57;254475;1104;116692;-72
2021/07/01 15:28:13;;;;;;;1.93;1.83;;;;;;;25.18;46.23;99308.21;254297;1103;115858;-72
2021/07/01 15:33:17;;;;;;;2.00;1.90;;;;;;;25.17;45.71;99303.09;257306;1104;116971;-73
2021/07/01 15:38:19;;;;;;;1.75;1.65;;;;;;;25.14;46.08;99296.39;256668;1103;116822;-72
2021/07/01 15:43:24;;;;;;;1.78;1.68;;;;;;;25.04;45.58;99296.07;254469;1094;115750;-72
2021/07/01 15:48:30;;;;;;;1.90;1.80;;;;;;;24.98;46.00;99295.50;255570;1104;115798;-78
2021/07/01 15:53:32;;;;;;;1.45;1.45;;;;;;;24.94;45.78;99286.38;254655;1097;116676;-82
2021/07/01 15:58:35;;;;;;;2.68;1.85;;;;;;;24.98;46.12;99276.41;254396;1104;116883;-79
2021/07/01 16:03:42;;;;;;;1.68;1.58;;;;;;;24.99;46.20;99278.00;254503;1098;116593;-74
2021/07/01 16:08:50;;;;;;;4.98;2.60;;;;;;;24.92;46.71;99277.74;255182;1103;115495;-72
2021/07/01 16:13:53;;;;;;;2.18;2.08;;;;;;;24.84;46.55;99284.09;254423;1104;115940;-74
2021/07/01 16:18:56;;;;;;;2.13;2.03;;;;;;;24.68;46.62;99288.63;254309;1104;116633;-73
2021/07/01 16:24:01;;;;;;;2.00;1.90;;;;;;;24.43;47.33;99287.80;254489;1103;117141;-73
2021/07/01 16:29:25;;;;;;;1.90;1.80;;;;;;;24.19;47.90;99285.76;254429;1104;115855;-73
2021/07/01 16:34:28;;;;;;;3.35;1.83;;;;;;;24.12;48.15;99288.25;254052;1104;116704;-78
2021/07/01 16:39:31;;;;;;;2.10;1.90;;;;;;;23.96;48.50;99281.83;254449;1104;115857;-79
2021/07/01 16:44:34;;;;;;;5.60;2.83;;;;;;;23.86;48.92;99288.47;254498;1103;117082;-79
2021/07/01 16:49:40;;;;;;;6.20;3.48;;;;;;;23.72;49.52;99296.13;254544;1104;118019;-79
2021/07/01 16:54:48;;;;;;;2.73;2.53;;;;;;;23.59;49.99;99299.89;254870;1104;115968;-78
2021/07/01 16:59:54;;;;;;;2.83;2.08;;;;;;;23.34;49.98;99302.44;254363;1104;115368;-77
2021/07/01 17:04:56;;;;;;;;;;;;;;;23.11;50.56;99307.38;254474;1104;116147;-76
2021/07/01 17:10:01;;;;;;;3.38;2.53;;;;;;;22.97;51.17;99304.07;258043;1104;103507;-79
2021/07/01 17:15:05;;;;;;;2.53;2.05;;;;;;;23.00;51.82;99303.42;255422;1104;115706;-78
2021/07/01 17:20:14;;;;;;;2.80;2.60;;;;;;;22.97;52.16;99311.43;256096;1104;115997;-75
2021/07/01 17:25:18;;;;;;;4.70;2.60;;;;;;;22.93;52.61;99311.28;254977;1104;116914;-77
2021/07/01 17:30:21;;;;;;;2.90;2.28;;;;;;;22.87;53.07;99323.48;255335;1104;116675;-77
2021/07/01 17:35:24;;;;;;;1.78;1.70;;;;;;;22.87;53.80;99315.33;257176;1104;115233;-79
2021/07/01 17:40:27;;;;;;;2.28;2.15;;;;;;;22.85;53.73;99331.16;257073;1103;116079;-80
2021/07/01 17:45:30;;;;;;;2.30;2.07;;;;;;;22.82;53.93;99342.67;257274;1104;117141;-79
2021/07/01 17:50:33;;;;;;;2.90;2.60;;;;;;;22.69;53.59;99340.92;254494;1097;117035;-78
2021/07/01 17:55:37;;;;;;;5.90;3.00;;;;;;;22.56;53.84;99347.36;254409;1104;116959;-78
2021/07/01 18:00:41;;;;;;;2.70;2.25;;;;;;;22.47;54.18;99336.51;254414;1099;117072;-77
2021/07/01 18:05:43;;;;;;;4.30;2.43;;;;;;;22.38;54.66;99344.66;254232;1103;114740;-79
2021/07/01 18:10:46;;;;;;;2.20;2.10;;;;;;;22.23;55.06;99342.47;254363;1104;115601;-77
2021/07/01 18:15:52;;;;;;;2.08;1.98;;;;;;;22.06;55.62;99342.46;254300;1104;115768;-78
2021/07/01 18:20:55;;;;;;;;;;;;;;;21.87;55.36;99353.61;254153;1104;117018;-79
2021/07/01 18:26:00;;;;;;;1.73;1.63;;;;;;;21.66;55.27;99350.73;255372;1104;103368;-77
2021/07/01 18:31:04;;;;;;;2.00;1.90;;;;;;;21.51;55.54;99340.33;254365;1104;115041;-79
2021/07/01 18:36:07;;;;;;;5.33;2.35;;;;;;;21.38;56.03;99349.41;254614;1104;117142;-76
2021/07/01 18:41:10;;;;;;;2.70;2.17;;;;;;;21.23;56.40;99361.47;254437;1104;115652;-74
2021/07/01 18:46:14;;;;;;;2.25;2.15;;;;;;;21.07;56.89;99362.98;254994;1104;116105;-77
2021/07/01 18:51:20;;;;;;;2.80;2.15;;;;;;;20.93;57.29;99367.69;254721;1104;115299;-77
2021/07/01 18:56:23;;;;;;;2.43;2.25;;;;;;;20.76;57.93;99371.93;254262;1104;115024;-75
2021/07/01 19:01:25;;;;;;;2.40;2.15;;;;;;;20.67;58.27;99367.56;254611;1096;116652;-77
2021/07/01 19:06:32;;;;;;;3.08;2.43;;;;;;;20.53;58.68;99369.53;254114;1104;116176;-77
2021/07/01 19:11:35;;;;;;;5.13;2.43;;;;;;;20.38;59.02;99362.61;254162;1104;116258;-74
2021/07/01 19:16:41;;;;;;;2.30;2.20;;;;;;;20.24;59.18;99378.86;254401;1104;115973;-75
2021/07/01 19:21:44;;;;;;;2.70;2.50;;;;;;;20.06;59.37;99386.05;254329;1104;116672;-75
2021/07/01 19:27:03;;;;;;;2.85;2.65;;;;;;;19.91;60.09;99404.52;254335;1096;116800;-78
2021/07/01 19:32:06;;;;;;;4.03;2.68;;;;;;;19.74;60.58;99407.88;255697;1104;115937;-80
2021/07/01 19:37:09;;;;;;;3.65;3.35;;;;;;;19.70;60.91;99404.97;254724;1104;116262;-80
2021/07/01 19:42:12;;;;;;;3.57;3.37;;;;;;;19.70;61.07;99402.27;257220;1104;116745;-78
2021/07/01 19:47:17;;;;;;;4.47;3.80;;;;;;;19.79;61.53;99415.88;256379;1103;116523;-75
2021/07/01 19:52:20;;;;;;;4.58;4.18;;;;;;;19.79;61.63;99413.98;254471;1104;117079;-79
2021/07/01 19:57:28;;;;;;;3.40;3.20;;;;;;;19.77;62.03;99418.89;257092;1104;116854;-79
2021/07/01 20:02:31;;;;;;;4.03;3.53;;;;;;;19.71;62.29;99414.69;254755;1097;116159;-79
2021/07/01 20:07:34;;;;;;;4.85;4.45;;;;;;;19.68;62.52;99417.19;255912;1104;114425;-75
2021/07/01 20:12:37;;;;;;;3.80;3.50;;;;;;;19.68;62.68;99415.28;255882;1104;115155;-75
2021/07/01 20:17:41;;;;;;;4.45;4.05;;;;;;;19.69;62.85;99406.07;254215;1103;115394;-74
2021/07/01 20:22:46;;;;;;;3.65;3.23;;;;;;;19.70;62.26;99423.90;255202;1104;115396;-78
2021/07/01 20:27:50;;;;;;;4.28;3.95;;;;;;;19.64;61.93;99430.51;255071;1103;116714;-78
2021/07/01 20:32:52;;;;;;;3.80;3.50;;;;;;;19.58;61.61;99429.00;254768;1104;115783;-76
2021/07/01 20:37:55;;;;;;;2.97;2.77;;;;;;;19.54;61.40;99430.73;254253;1104;115465;-75
2021/07/01 20:42:59;;;;;;;3.70;2.83;;;;;;;19.46;61.27;99436.80;254186;1104;115632;-75
2021/07/01 20:48:03;;;;;;;3.60;2.80;;;;;;;19.36;61.25;99423.48;254479;1104;115938;-75
2021/07/01 20:53:10;;;;;;;3.38;3.18;;;;;;;19.23;61.30;99433.20;254718;1104;115820;-74
2021/07/01 20:58:17;;;;;;;2.65;2.50;;;;;;;19.14;61.40;99430.38;254374;1096;115786;-74
2021/07/01 21:03:21;;;;;;;2.83;2.60;;;;;;;19.09;61.71;99446.67;254363;1104;115520;-78
2021/07/01 21:08:27;;;;;;;4.88;3.15;;;;;;;19.01;61.60;99450.05;254513;1103;116035;-76
2021/07/01 21:13:33;;;;;;;;;;;;;;;18.96;61.87;99454.73;254277;1097;115243;-75
2021/07/01 21:18:43;;;;;;;5.30;2.93;;;;;;;18.84;62.26;99466.83;255049;1102;103090;-77
2021/07/01 21:23:45;;;;;;;3.05;2.85;;;;;;;18.79;62.24;99474.20;254898;1104;115656;-74
2021/07/01 21:28:50;;;;;;;8.78;3.15;;;;;;;18.68;62.48;99473.56;255859;1104;115543;-74
2021/07/01 21:33:53;;;;;;;3.20;2.57;;;;;;;18.57;62.45;99482.90;254624;1104;115413;-76
2021/07/01 21:38:58;;;;;;;2.88;2.33;;;;;;;18.47;62.68;99478.45;254843;1097;118324;-75
2021/07/01 21:44:02;;;;;;;3.40;3.10;;;;;;;18.32;62.72;99475.98;255130;1103;115415;-75
2021/07/01 21:49:09;;;;;;;2.88;2.63;;;;;;;18.16;63.01;99474.58;255375;1103;115555;-75
2021/07/01 21:54:15;;;;;;;2.83;2.63;;;;;;;17.97;63.34;99468.38;254383;1104;115138;-75
2021/07/01 21:59:20;;;;;;;5.30;3.45;;;;;;;17.79;63.51;99459.95;254950;1103;115162;-75
2021/07/01 22:04:24;;;;;;;5.43;3.35;;;;;;;17.66;63.91;99462.56;254348;1103;115509;-73
2021/07/01 22:09:28;;;;;;;3.23;3.03;;;;;;;17.50;64.08;99467.27;255860;1103;116024;-76
2021/07/01 22:14:36;;;;;;;2.85;2.65;;;;;;;17.44;64.45;99468.41;254892;1097;116241;-76
2021/07/01 22:24:54;;;;;;;2.65;2.45;;;;;;;17.40;64.88;99472.80;254605;1103;115940;-76
2021/07/01 22:29:58;;;;;;;4.50;2.77;;;;;;;17.33;65.10;99480.41;254414;1103;115811;-76
2021/07/01 22:35:02;;;;;;;3.70;3.30;;;;;;;17.27;65.42;99482.34;254528;1103;122165;-78
2021/07/01 22:40:06;;;;;;;3.05;2.85;;;;;;;17.18;65.47;99481.34;254478;1104;115896;-78
2021/07/01 22:45:11;;;;;;;5.68;2.50;;;;;;;17.08;65.62;99484.95;254816;1104;115234;-79
2021/07/01 22:50:15;;;;;;;2.88;2.68;;;;;;;17.01;65.76;99481.78;254637;1104;115413;-78
2021/07/01 22:55:19;;;;;;;2.90;2.70;;;;;;;16.93;66.03;99481.58;254436;1104;115570;-76
2021/07/01 23:00:25;;;;;;;3.70;3.40;;;;;;;16.85;66.19;99480.29;254309;1104;115455;-76
2021/07/01 23:05:28;;;;;;;3.10;2.45;;;;;;;16.79;66.49;99479.55;255535;1103;115273;-75
2021/07/01 23:10:33;;;;;;;2.30;2.10;;;;;;;16.79;66.72;99484.13;254327;1104;115444;-74
2021/07/01 23:15:37;;;;;;;1.90;1.80;;;;;;;16.76;66.94;99480.11;255287;1103;115595;-78
2021/07/01 23:20:40;;;;;;;3.23;2.53;;;;;;;16.75;67.15;99485.78;254592;1096;115258;-78
2021/07/01 23:25:43;;;;;;;2.33;2.00;;;;;;;16.70;67.07;99481.23;254399;1104;115793;-78